Time;durP1;ratioP1;P1;durP2;ratioP2;P2;SDS_P1;SDS_P2;PMS_P1;PMS_P2;Temp;Humidity;BMP_temperature;BMP_pressure;BME280_temperature;BME280_humidity;BME280_pressure;Samples;Min_cycle;Max_cycle;Signal;HPM_P1;HPM_P2
2022/04/26 03:38:22;;;;;;;19.48;8.68;;;;;;;;;;5070113;28;20041;-70
2022/04/26 03:41:06;;;;;;;17.45;8.73;;;;;;;;;;5069941;28;20697;-71
2022/04/26 03:43:37;;;;;;;16.63;7.97;;;;;;;;;;5070044;28;20393;-70
2022/04/26 03:46:06;;;;;;;17.30;8.38;;;;;;;;;;5069965;28;20044;-70
2022/04/26 03:48:44;;;;;;;14.50;8.15;;;;;;;;;;5069310;28;20094;-70
2022/04/26 03:51:13;;;;;;;14.75;7.47;;;;;;;;;;5053880;28;20048;-70
2022/04/26 03:53:46;;;;;;;16.25;8.18;;;;;;;;;;5069863;28;20032;-70
2022/04/26 03:56:35;;;;;;;14.48;8.05;;;;;;;;;;5067983;28;20052;-70
2022/04/26 03:59:02;;;;;;;;;;;;;;;;;;5069979;28;21470;-70
2022/04/26 04:01:37;;;;;;;15.15;7.75;;;;;;;;;;5068540;28;19931;-70
2022/04/26 04:04:06;;;;;;;15.17;7.47;;;;;;;;;;5069334;28;20029;-70
2022/04/26 04:06:44;;;;;;;13.70;7.50;;;;;;;;;;5069318;28;20562;-70
2022/04/26 04:09:10;;;;;;;19.90;7.75;;;;;;;;;;5069058;28;20507;-70
2022/04/26 04:11:50;;;;;;;23.65;8.05;;;;;;;;;;5067307;28;20115;-70
2022/04/26 04:14:19;;;;;;;20.50;8.68;;;;;;;;;;5069124;28;20043;-70
2022/04/26 04:17:11;;;;;;;21.73;8.80;;;;;;;;;;5069176;28;20041;-70
2022/04/26 04:19:55;;;;;;;14.98;7.47;;;;;;;;;;5068858;28;20047;-70
2022/04/26 04:22:48;;;;;;;18.85;7.18;;;;;;;;;;5068570;28;20090;-70
2022/04/26 04:25:17;;;;;;;14.10;7.22;;;;;;;;;;5077709;28;20044;-70
2022/04/26 04:27:44;;;;;;;20.13;9.52;;;;;;;;;;5067547;28;20072;-70
2022/04/26 04:30:14;;;;;;;13.23;7.07;;;;;;;;;;5051477;28;20058;-70
2022/04/26 04:32:43;;;;;;;17.58;8.30;;;;;;;;;;5069132;28;20495;-70
2022/04/26 04:35:15;;;;;;;19.98;8.35;;;;;;;;;;5069484;28;20040;-70
2022/04/26 04:37:49;;;;;;;19.73;8.52;;;;;;;;;;5068936;28;21871;-70
2022/04/26 04:40:21;;;;;;;14.63;7.90;;;;;;;;;;5084612;28;20106;-70
2022/04/26 04:42:50;;;;;;;19.55;8.70;;;;;;;;;;5068668;28;20078;-70
2022/04/26 04:45:24;;;;;;;19.77;8.60;;;;;;;;;;5067935;28;20480;-70
2022/04/26 04:47:58;;;;;;;14.63;8.45;;;;;;;;;;5066123;28;20515;-70
2022/04/26 04:50:27;;;;;;;19.17;8.93;;;;;;;;;;5068015;28;20803;-70
2022/04/26 04:53:02;;;;;;;22.63;9.02;;;;;;;;;;5067241;28;20099;-70
2022/04/26 04:55:38;;;;;;;17.73;8.90;;;;;;;;;;5070200;28;20484;-70
2022/04/26 04:58:14;;;;;;;17.65;8.38;;;;;;;;;;5068754;28;20095;-70
2022/04/26 05:00:46;;;;;;;17.27;7.90;;;;;;;;;;5065093;28;20175;-70
2022/04/26 05:03:54;;;;;;;15.07;7.95;;;;;;;;;;5042848;28;20046;-70
2022/04/26 05:06:46;;;;;;;17.15;8.02;;;;;;;;;;5068742;28;20075;-70
2022/04/26 05:09:22;;;;;;;;;;;;;;;;;;;;;
2022/04/26 05:12:03;;;;;;;19.70;8.82;;;;;;;;;;5069009;28;20127;-70
2022/04/26 05:14:33;;;;;;;19.17;7.80;;;;;;;;;;5053085;28;20090;-70
2022/04/26 05:17:15;;;;;;;17.02;7.07;;;;;;;;;;5068091;28;20131;-70
2022/04/26 05:19:56;;;;;;;16.98;7.72;;;;;;;;;;5068785;28;20047;-70
2022/04/26 05:24:53;;;;;;;15.07;7.18;;;;;;;;;;5041117;28;20387;-70
2022/04/26 05:25:24;;;;;;;18.15;7.38;;;;;;;;;;5045565;28;20505;-70
2022/04/26 05:27:53;;;;;;;15.27;7.10;;;;;;;;;;5009245;28;20556;-70
2022/04/26 05:30:26;;;;;;;11.73;6.90;;;;;;;;;;5043776;28;20111;-70
2022/04/26 05:35:53;;;;;;;16.58;7.32;;;;;;;;;;5024761;28;20552;-70
2022/04/26 05:38:25;;;;;;;12.65;6.57;;;;;;;;;;5023949;28;20140;-70
2022/04/26 05:41:02;;;;;;;19.90;7.47;;;;;;;;;;5020999;28;20049;-70
2022/04/26 05:43:48;;;;;;;21.45;7.03;;;;;;;;;;5025880;28;20056;-70
2022/04/26 05:46:17;;;;;;;15.85;6.85;;;;;;;;;;5026395;28;20072;-70
2022/04/26 05:48:50;;;;;;;12.38;6.38;;;;;;;;;;5043600;28;20533;-70
2022/04/26 05:51:19;;;;;;;18.67;6.72;;;;;;;;;;5044482;28;20095;-70
2022/04/26 05:53:48;;;;;;;12.02;6.28;;;;;;;;;;5055712;28;20507;-69
2022/04/26 05:56:21;;;;;;;16.23;6.38;;;;;;;;;;5065796;28;20389;-70
2022/04/26 05:58:56;;;;;;;14.05;6.00;;;;;;;;;;5067293;28;20532;-69
2022/04/26 06:01:34;;;;;;;18.50;6.18;;;;;;;;;;5064513;28;20039;-70
2022/04/26 06:04:06;;;;;;;12.55;5.97;;;;;;;;;;5066269;28;20397;-70
2022/04/26 06:06:44;;;;;;;13.18;6.13;;;;;;;;;;5064184;28;20044;-70
2022/04/26 06:12:34;;;;;;;13.70;6.13;;;;;;;;;;5053950;28;20671;-70
2022/04/26 06:15:06;;;;;;;13.75;6.43;;;;;;;;;;5065076;28;20326;-70
2022/04/26 06:17:50;;;;;;;15.85;6.65;;;;;;;;;;5066882;28;20044;-70
2022/04/26 06:20:28;;;;;;;17.70;6.57;;;;;;;;;;5067522;28;20502;-70
2022/04/26 06:22:55;;;;;;;15.48;6.35;;;;;;;;;;5066098;28;20052;-70
2022/04/26 06:25:36;;;;;;;15.80;6.20;;;;;;;;;;5066587;28;20055;-70
2022/04/26 06:28:09;;;;;;;17.02;6.20;;;;;;;;;;5065302;28;20523;-70
2022/04/26 06:30:39;;;;;;;13.30;6.00;;;;;;;;;;5064243;28;20504;-70
2022/04/26 06:33:11;;;;;;;15.13;5.78;;;;;;;;;;5066118;28;20488;-70
2022/04/26 06:35:43;;;;;;;11.45;5.65;;;;;;;;;;5049451;28;20067;-70
2022/04/26 06:38:22;;;;;;;12.38;5.97;;;;;;;;;;5064913;28;20032;-70
2022/04/26 06:40:51;;;;;;;10.73;5.25;;;;;;;;;;5067041;28;20693;-70
2022/04/26 06:43:40;;;;;;;14.93;5.75;;;;;;;;;;5064273;28;20098;-70
2022/04/26 06:46:10;;;;;;;12.02;5.82;;;;;;;;;;5057891;28;20063;-70
2022/04/26 06:48:39;;;;;;;11.38;5.75;;;;;;;;;;5064765;28;20043;-70
2022/04/26 06:51:08;;;;;;;10.55;5.22;;;;;;;;;;5062344;28;20604;-70
2022/04/26 06:54:06;;;;;;;14.27;5.82;;;;;;;;;;5050841;28;20079;-70
2022/04/26 06:56:35;;;;;;;12.20;5.53;;;;;;;;;;5056527;28;20091;-70
2022/04/26 06:59:16;;;;;;;13.15;5.32;;;;;;;;;;5065956;28;20451;-70
2022/04/26 07:02:02;;;;;;;12.75;5.40;;;;;;;;;;5066434;28;20489;-71
2022/04/26 07:04:36;;;;;;;12.35;4.80;;;;;;;;;;5066209;28;20746;-71
2022/04/26 07:07:08;;;;;;;11.50;4.28;;;;;;;;;;5069008;28;20627;-70
2022/04/26 07:09:51;;;;;;;7.97;3.80;;;;;;;;;;5052667;28;20144;-69
2022/04/26 07:12:22;;;;;;;16.67;4.00;;;;;;;;;;5069962;28;20052;-72
2022/04/26 07:14:56;;;;;;;6.10;3.58;;;;;;;;;;5069718;28;20028;-70
2022/04/26 07:17:33;;;;;;;11.45;3.80;;;;;;;;;;5069723;28;20159;-71
2022/04/26 07:20:24;;;;;;;8.75;3.83;;;;;;;;;;5071740;28;20484;-70
2022/04/26 07:23:00;;;;;;;9.60;4.00;;;;;;;;;;5059831;28;20049;-71
2022/04/26 07:25:38;;;;;;;9.30;3.63;;;;;;;;;;5069735;28;20056;-70
2022/04/26 07:28:28;;;;;;;10.15;3.80;;;;;;;;;;5070930;28;20032;-70
2022/04/26 07:31:00;;;;;;;10.65;3.90;;;;;;;;;;5055874;28;20504;-70
2022/04/26 07:36:22;;;;;;;10.35;4.25;;;;;;;;;;5069835;28;20110;-71
2022/04/26 07:41:43;;;;;;;8.65;3.90;;;;;;;;;;5062931;28;20072;-70
2022/04/26 07:44:25;;;;;;;9.18;3.65;;;;;;;;;;5070069;28;20037;-70
2022/04/26 07:46:54;;;;;;;7.45;4.00;;;;;;;;;;5053514;28;20592;-70
2022/04/26 07:49:30;;;;;;;7.68;3.92;;;;;;;;;;5070269;28;20519;-70
2022/04/26 07:52:11;;;;;;;9.50;4.20;;;;;;;;;;5053213;28;20044;-70
2022/04/26 07:54:48;;;;;;;8.05;3.83;;;;;;;;;;5081855;28;20534;-70
2022/04/26 07:57:23;;;;;;;6.55;3.50;;;;;;;;;;5069764;28;20854;-70
2022/04/26 07:59:53;;;;;;;10.18;3.63;;;;;;;;;;5068192;28;20047;-71
2022/04/26 08:02:39;;;;;;;7.72;3.80;;;;;;;;;;5052650;28;20476;-71
2022/04/26 08:05:14;;;;;;;11.18;3.75;;;;;;;;;;5069684;28;20123;-70
2022/04/26 08:07:52;;;;;;;7.90;3.75;;;;;;;;;;5054839;28;20045;-70
2022/04/26 08:10:30;;;;;;;10.30;3.67;;;;;;;;;;5069299;28;20048;-70
2022/04/26 08:16:05;;;;;;;8.20;4.15;;;;;;;;;;5066575;28;20083;-73
2022/04/26 08:18:47;;;;;;;9.15;3.90;;;;;;;;;;5052427;28;20052;-73
2022/04/26 08:21:25;;;;;;;7.38;3.33;;;;;;;;;;5083817;28;20044;-73
2022/04/26 08:29:36;;;;;;;7.72;3.67;;;;;;;;;;5066911;28;20052;-73
2022/04/26 08:32:08;;;;;;;8.65;3.55;;;;;;;;;;5069390;28;20052;-74
2022/04/26 08:34:44;;;;;;;8.77;3.63;;;;;;;;;;5067571;28;20040;-73
2022/04/26 08:37:28;;;;;;;8.55;3.15;;;;;;;;;;5052459;28;20834;-73
2022/04/26 08:40:09;;;;;;;6.88;3.22;;;;;;;;;;5067412;28;20040;-73
2022/04/26 08:42:44;;;;;;;8.07;3.53;;;;;;;;;;5067108;28;20519;-74
2022/04/26 08:45:44;;;;;;;8.93;3.47;;;;;;;;;;5069909;28;20052;-74
2022/04/26 08:54:42;;;;;;;8.57;3.75;;;;;;;;;;4995207;28;20053;-73
2022/04/26 08:57:13;;;;;;;6.60;3.25;;;;;;;;;;5007169;28;20136;-73
2022/04/26 08:59:55;;;;;;;6.85;3.13;;;;;;;;;;5007203;28;20406;-73
2022/04/26 09:02:43;;;;;;;9.20;3.10;;;;;;;;;;5007642;28;20231;-73
2022/04/26 09:05:29;;;;;;;5.72;2.80;;;;;;;;;;5008640;28;20485;-73
2022/04/26 09:07:58;;;;;;;7.38;2.50;;;;;;;;;;4990390;28;20128;-74
2022/04/26 09:10:36;;;;;;;7.90;3.65;;;;;;;;;;5008418;28;20038;-72
2022/04/26 09:13:15;;;;;;;6.25;3.38;;;;;;;;;;5006265;28;20479;-73
2022/04/26 09:15:58;;;;;;;8.43;3.50;;;;;;;;;;5010522;28;20051;-74
2022/04/26 09:18:30;;;;;;;7.10;3.30;;;;;;;;;;5015372;28;20052;-71
2022/04/26 09:21:27;;;;;;;7.63;2.67;;;;;;;;;;5048365;28;20127;-72
2022/04/26 09:24:03;;;;;;;8.57;3.20;;;;;;;;;;5062622;28;20079;-71
2022/04/26 09:26:39;;;;;;;6.13;3.10;;;;;;;;;;5047560;28;20044;-71
2022/04/26 09:29:06;;;;;;;8.30;2.95;;;;;;;;;;5066603;28;20036;-72
2022/04/26 09:31:55;;;;;;;4.63;2.60;;;;;;;;;;5049017;28;20052;-71
2022/04/26 09:34:39;;;;;;;8.27;2.92;;;;;;;;;;5064236;28;20057;-71
2022/04/26 09:37:17;;;;;;;7.80;2.78;;;;;;;;;;5065232;28;20043;-72
2022/04/26 09:40:08;;;;;;;7.30;2.85;;;;;;;;;;5065235;28;20040;-71
2022/04/26 09:42:38;;;;;;;5.07;2.55;;;;;;;;;;5061429;28;20048;-70
2022/04/26 09:45:13;;;;;;;5.57;3.03;;;;;;;;;;5075122;28;20115;-72
2022/04/26 09:47:46;;;;;;;6.47;2.63;;;;;;;;;;5061706;28;20044;-72
2022/04/26 09:50:19;;;;;;;7.28;3.05;;;;;;;;;;5063760;28;20535;-73
2022/04/26 09:52:55;;;;;;;8.35;3.00;;;;;;;;;;5064181;28;20044;-72
2022/04/26 09:55:24;;;;;;;6.65;3.10;;;;;;;;;;5064612;28;20037;-73
2022/04/26 09:57:53;;;;;;;10.48;3.58;;;;;;;;;;5045016;28;20043;-73
2022/04/26 10:00:43;;;;;;;5.10;2.88;;;;;;;;;;5062738;28;20098;-73
2022/04/26 10:03:17;;;;;;;5.28;2.72;;;;;;;;;;5051939;28;20151;-73
2022/04/26 10:05:45;;;;;;;8.25;2.80;;;;;;;;;;5062933;28;20412;-73
2022/04/26 10:08:26;;;;;;;5.60;2.70;;;;;;;;;;5064439;28;20048;-73
2022/04/26 10:10:56;;;;;;;7.50;2.80;;;;;;;;;;5048317;28;20048;-73
2022/04/26 10:13:38;;;;;;;6.30;2.25;;;;;;;;;;5043697;28;20055;-72
2022/04/26 10:16:10;;;;;;;4.22;2.47;;;;;;;;;;5060328;28;20096;-73
2022/04/26 10:18:39;;;;;;;5.50;2.78;;;;;;;;;;5063112;28;20060;-73
2022/04/26 10:21:07;;;;;;;6.43;2.50;;;;;;;;;;5061206;28;20139;-73
2022/04/26 10:23:51;;;;;;;3.90;2.30;;;;;;;;;;5061090;28;20496;-73
2022/04/26 10:26:29;;;;;;;6.95;2.60;;;;;;;;;;5063805;28;20044;-73
2022/04/26 10:29:00;;;;;;;7.25;2.30;;;;;;;;;;5021764;28;20064;-72
2022/04/26 10:31:49;;;;;;;8.50;2.60;;;;;;;;;;5002385;28;20049;-72
2022/04/26 10:34:29;;;;;;;5.63;3.17;;;;;;;;;;4959307;28;20057;-73
2022/04/26 10:37:08;;;;;;;6.70;2.58;;;;;;;;;;4947532;28;20475;-73
2022/04/26 10:40:15;;;;;;;3.92;2.63;;;;;;;;;;4987418;28;20056;-73
2022/04/26 10:43:02;;;;;;;4.55;2.10;;;;;;;;;;5004556;28;20087;-73
2022/04/26 10:45:32;;;;;;;4.32;2.30;;;;;;;;;;5003208;28;20057;-72
2022/04/26 10:48:33;;;;;;;8.00;2.55;;;;;;;;;;5005917;28;20041;-74
2022/04/26 10:51:24;;;;;;;5.05;2.17;;;;;;;;;;5020945;28;20048;-73
2022/04/26 10:53:50;;;;;;;5.40;2.70;;;;;;;;;;5004021;28;20049;-74
2022/04/26 10:56:19;;;;;;;4.85;2.45;;;;;;;;;;4987858;28;20046;-74
2022/04/26 10:59:06;;;;;;;6.90;2.30;;;;;;;;;;5006654;28;20049;-73
2022/04/26 11:01:32;;;;;;;5.95;2.80;;;;;;;;;;5061757;28;20040;-73
2022/04/26 11:04:10;;;;;;;5.65;2.35;;;;;;;;;;5062195;28;20036;-74
2022/04/26 11:06:45;;;;;;;5.97;2.50;;;;;;;;;;5060780;28;20554;-73
2022/04/26 11:09:24;;;;;;;5.03;2.40;;;;;;;;;;5058167;28;20082;-75
2022/04/26 11:12:02;;;;;;;4.40;2.47;;;;;;;;;;5058933;28;20048;-73
2022/04/26 11:14:37;;;;;;;6.32;2.78;;;;;;;;;;5059666;28;20690;-71
2022/04/26 11:17:06;;;;;;;4.95;2.08;;;;;;;;;;5061904;28;20135;-72
2022/04/26 11:19:55;;;;;;;7.07;2.10;;;;;;;;;;5062204;28;20509;-72
2022/04/26 11:22:27;;;;;;;5.28;2.50;;;;;;;;;;5045409;28;20523;-73
2022/04/26 11:28:14;;;;;;;6.38;2.35;;;;;;;;;;5061995;28;20037;-72
2022/04/26 11:34:22;;;;;;;5.07;2.50;;;;;;;;;;5002286;28;20092;-72
2022/04/26 11:36:53;;;;;;;6.68;2.38;;;;;;;;;;4985941;28;20059;-73
2022/04/26 11:39:39;;;;;;;4.50;2.30;;;;;;;;;;5005410;28;20144;-73
2022/04/26 11:42:17;;;;;;;5.25;2.00;;;;;;;;;;5001345;28;20053;-73
2022/04/26 11:45:04;;;;;;;4.40;2.13;;;;;;;;;;5001909;28;20553;-73
2022/04/26 11:47:33;;;;;;;;;;;;;;;;;;5045388;28;20485;-73
2022/04/26 11:50:36;;;;;;;5.20;2.70;;;;;;;;;;5062421;28;19924;-73
2022/04/26 11:53:10;;;;;;;4.85;2.30;;;;;;;;;;5064744;28;20395;-73
2022/04/26 11:56:15;;;;;;;8.68;2.25;;;;;;;;;;5049233;28;20454;-73
2022/04/26 11:59:02;;;;;;;4.35;2.30;;;;;;;;;;5080346;28;20457;-73
2022/04/26 12:01:31;;;;;;;6.25;2.20;;;;;;;;;;5065732;28;20535;-73
2022/04/26 12:04:19;;;;;;;4.03;2.13;;;;;;;;;;5065777;28;20063;-73
2022/04/26 12:06:50;;;;;;;4.30;2.10;;;;;;;;;;5062082;28;20128;-75
2022/04/26 12:09:23;;;;;;;5.30;2.42;;;;;;;;;;5066667;28;20044;-75
2022/04/26 12:11:59;;;;;;;4.75;2.30;;;;;;;;;;5065635;28;20048;-75
2022/04/26 12:14:31;;;;;;;5.15;2.33;;;;;;;;;;5064711;28;20040;-76
2022/04/26 12:16:58;;;;;;;5.07;2.42;;;;;;;;;;5066791;28;20090;-76
2022/04/26 12:19:41;;;;;;;4.78;2.30;;;;;;;;;;5023085;28;20148;-75
2022/04/26 12:22:19;;;;;;;6.20;2.08;;;;;;;;;;5009216;28;20044;-77
2022/04/26 12:24:49;;;;;;;5.95;2.00;;;;;;;;;;5006784;28;20087;-72
2022/04/26 12:27:27;;;;;;;4.03;2.13;;;;;;;;;;5025182;28;20041;-76
2022/04/26 12:30:06;;;;;;;6.80;2.20;;;;;;;;;;5005099;28;20061;-75
2022/04/26 12:32:53;;;;;;;9.27;3.08;;;;;;;;;;5010116;28;20042;-76
2022/04/26 12:35:25;;;;;;;6.10;2.42;;;;;;;;;;5006601;28;20071;-75
2022/04/26 12:38:16;;;;;;;4.53;2.25;;;;;;;;;;5009292;28;20045;-75
2022/04/26 12:41:00;;;;;;;5.97;1.98;;;;;;;;;;5004857;28;20045;-75
2022/04/26 12:43:45;;;;;;;5.13;2.38;;;;;;;;;;5007753;28;20056;-75
2022/04/26 12:46:29;;;;;;;3.38;2.10;;;;;;;;;;5007057;28;20525;-66
2022/04/26 12:51:57;;;;;;;5.95;2.45;;;;;;;;;;5064475;28;20489;-76
2022/04/26 12:54:31;;;;;;;7.80;2.50;;;;;;;;;;5065017;28;20049;-76
2022/04/26 12:57:03;;;;;;;6.38;2.65;;;;;;;;;;5065778;28;20539;-76
2022/04/26 12:59:41;;;;;;;4.28;2.15;;;;;;;;;;5062663;28;20171;-77
2022/04/26 13:02:16;;;;;;;4.10;2.10;;;;;;;;;;5048601;28;20032;-76
2022/04/26 13:04:48;;;;;;;4.32;2.28;;;;;;;;;;5048735;28;20409;-75
2022/04/26 13:07:35;;;;;;;5.90;2.58;;;;;;;;;;5064207;28;20044;-75
2022/04/26 13:10:17;;;;;;;6.60;2.50;;;;;;;;;;5066637;28;20118;-75
2022/04/26 13:12:49;;;;;;;6.30;2.38;;;;;;;;;;5048680;28;20505;-75
2022/04/26 13:15:23;;;;;;;4.00;2.05;;;;;;;;;;5062133;28;20055;-76
2022/04/26 13:18:12;;;;;;;5.82;2.90;;;;;;;;;;5064219;28;20040;-76
2022/04/26 13:20:43;;;;;;;5.28;2.65;;;;;;;;;;5062085;28;20058;-76
2022/04/26 13:23:15;;;;;;;6.65;2.50;;;;;;;;;;5063363;28;20074;-76
2022/04/26 13:25:47;;;;;;;4.63;2.40;;;;;;;;;;5063125;28;20514;-76
2022/04/26 13:28:37;;;;;;;5.80;2.50;;;;;;;;;;4983594;28;20510;-76
2022/04/26 13:31:06;;;;;;;5.35;2.40;;;;;;;;;;5057731;28;20597;-76
2022/04/26 13:33:32;;;;;;;5.55;2.22;;;;;;;;;;5063793;28;20051;-76
2022/04/26 13:36:01;;;;;;;6.05;2.35;;;;;;;;;;5076659;28;20103;-76
2022/04/26 13:38:33;;;;;;;3.80;2.13;;;;;;;;;;5064807;28;20055;-76
2022/04/26 13:41:03;;;;;;;5.50;2.38;;;;;;;;;;5042866;28;20060;-73
2022/04/26 13:43:36;;;;;;;7.35;2.42;;;;;;;;;;5025594;28;20040;-73
2022/04/26 13:46:11;;;;;;;6.93;2.10;;;;;;;;;;5026145;28;20383;-74
2022/04/26 13:48:43;;;;;;;5.07;2.75;;;;;;;;;;5042307;28;20049;-73
2022/04/26 13:51:40;;;;;;;5.40;2.50;;;;;;;;;;5026378;28;20047;-73
2022/04/26 13:54:28;;;;;;;4.07;2.25;;;;;;;;;;5013228;28;20603;-74
2022/04/26 13:57:01;;;;;;;4.80;2.70;;;;;;;;;;5015619;28;20520;-73
2022/04/26 14:02:41;;;;;;;5.70;2.65;;;;;;;;;;5023822;28;20060;-73
2022/04/26 14:05:34;;;;;;;4.82;2.70;;;;;;;;;;5025758;28;20633;-73
2022/04/26 14:08:13;;;;;;;;;;;;;;;;;;;;;
2022/04/26 14:10:51;;;;;;;4.55;2.33;;;;;;;;;;5025887;28;20033;-74
2022/04/26 14:13:25;;;;;;;9.68;2.45;;;;;;;;;;5025215;28;20137;-73
2022/04/26 14:21:48;;;;;;;8.02;2.40;;;;;;;;;;5041910;28;20469;-74
2022/04/26 14:24:26;;;;;;;3.53;2.38;;;;;;;;;;5042160;28;20040;-73
2022/04/26 14:30:07;;;;;;;3.55;2.28;;;;;;;;;;5024779;28;20509;-74
2022/04/26 14:32:53;;;;;;;5.68;2.30;;;;;;;;;;5023840;28;20568;-73
2022/04/26 14:35:25;;;;;;;4.30;2.15;;;;;;;;;;5025820;28;20634;-75
2022/04/26 14:38:06;;;;;;;3.65;2.47;;;;;;;;;;5025711;28;20045;-74
2022/04/26 14:40:45;;;;;;;4.90;2.22;;;;;;;;;;5026138;28;20493;-73
2022/04/26 14:43:24;;;;;;;6.75;2.28;;;;;;;;;;5025032;28;20509;-73
2022/04/26 14:45:53;;;;;;;;;;;;;;;;;;5024729;28;20355;-73
2022/04/26 14:48:44;;;;;;;9.65;2.30;;;;;;;;;;5023763;28;19925;-74
2022/04/26 14:51:18;;;;;;;4.95;2.45;;;;;;;;;;5024530;28;21694;-74
2022/04/26 14:53:45;;;;;;;4.78;2.40;;;;;;;;;;5059593;28;20051;-73
2022/04/26 14:56:22;;;;;;;5.55;2.55;;;;;;;;;;5060717;28;20057;-73
2022/04/26 14:59:00;;;;;;;5.20;2.60;;;;;;;;;;5061948;28;20036;-74
2022/04/26 15:01:45;;;;;;;4.70;2.58;;;;;;;;;;5046500;28;20805;-73
2022/04/26 15:04:25;;;;;;;4.70;2.60;;;;;;;;;;5064361;28;20496;-74
2022/04/26 15:06:57;;;;;;;3.97;2.50;;;;;;;;;;5061765;28;20544;-74
2022/04/26 15:18:45;;;;;;;7.68;2.72;;;;;;;;;;5062388;28;20044;-74
2022/04/26 15:21:29;;;;;;;;;;;;;;;;;;;;;
2022/04/26 15:24:15;;;;;;;4.18;2.13;;;;;;;;;;5061266;28;20051;-71
2022/04/26 15:26:56;;;;;;;6.95;2.53;;;;;;;;;;5059450;28;20128;-73
2022/04/26 15:29:31;;;;;;;4.93;2.40;;;;;;;;;;5079248;28;20476;-74
2022/04/26 15:32:09;;;;;;;5.05;2.42;;;;;;;;;;5027123;28;20037;-74
2022/04/26 15:34:48;;;;;;;5.93;2.90;;;;;;;;;;5027232;28;20490;-74
2022/04/26 15:37:17;;;;;;;5.72;2.80;;;;;;;;;;5024713;28;20065;-73
2022/04/26 15:40:06;;;;;;;7.35;2.67;;;;;;;;;;5025839;28;20037;-73
2022/04/26 15:42:35;;;;;;;3.45;2.33;;;;;;;;;;5026832;28;20769;-73
2022/04/26 15:45:13;;;;;;;4.28;2.50;;;;;;;;;;5045156;28;20405;-74
2022/04/26 15:47:58;;;;;;;6.20;2.60;;;;;;;;;;5026832;28;20041;-73
2022/04/26 15:50:31;;;;;;;4.90;2.25;;;;;;;;;;5009953;28;20486;-72
2022/04/26 15:53:15;;;;;;;4.90;2.72;;;;;;;;;;5023018;28;20501;-73
2022/04/26 15:58:34;;;;;;;5.90;2.72;;;;;;;;;;5036328;28;20116;-73
2022/04/26 16:01:03;;;;;;;6.47;2.70;;;;;;;;;;5027518;28;20524;-76
2022/04/26 16:03:35;;;;;;;5.45;2.55;;;;;;;;;;5051571;28;20052;-77
2022/04/26 16:06:06;;;;;;;5.40;2.50;;;;;;;;;;5064531;28;20371;-76
2022/04/26 16:08:38;;;;;;;4.53;2.65;;;;;;;;;;5066111;28;20048;-75
2022/04/26 16:25:39;;;;;;;6.45;2.60;;;;;;;;;;5024777;28;20509;-75
2022/04/26 16:28:06;;;;;;;6.55;2.72;;;;;;;;;;5064503;28;20055;-75
2022/04/26 16:30:33;;;;;;;5.50;2.30;;;;;;;;;;5064273;28;20059;-75
2022/04/26 16:33:12;;;;;;;4.13;2.40;;;;;;;;;;5050275;28;20492;-76
2022/04/26 16:35:57;;;;;;;3.70;2.70;;;;;;;;;;5062021;28;21594;-75
2022/04/26 16:38:26;;;;;;;4.07;2.33;;;;;;;;;;5060861;28;20580;-75
2022/04/26 16:40:57;;;;;;;5.82;2.60;;;;;;;;;;5064157;28;20105;-75
2022/04/26 16:43:33;;;;;;;6.68;2.30;;;;;;;;;;5066154;28;20057;-75
2022/04/26 16:46:02;;;;;;;;;;;;;;;;;;5066384;28;20040;-74
2022/04/26 16:48:37;;;;;;;5.25;2.90;;;;;;;;;;5048694;28;20345;-75
2022/04/26 16:51:30;;;;;;;5.70;3.10;;;;;;;;;;5065890;28;20105;-76
2022/04/26 16:53:53;;;;;;;8.02;3.00;;;;;;;;;;5079715;28;20827;-74
2022/04/26 16:56:32;;;;;;;9.68;2.90;;;;;;;;;;5047577;28;20382;-75
2022/04/26 16:59:07;;;;;;;4.72;2.60;;;;;;;;;;5063914;28;20477;-75
2022/04/26 17:01:39;;;;;;;5.18;2.85;;;;;;;;;;5063423;28;20052;-75
2022/04/26 17:04:12;;;;;;;8.52;3.00;;;;;;;;;;5077040;28;20511;-75
2022/04/26 17:06:46;;;;;;;4.93;2.58;;;;;;;;;;5062474;28;20532;-75
2022/04/26 17:09:21;;;;;;;5.05;2.53;;;;;;;;;;5062579;28;20512;-75
2022/04/26 17:12:00;;;;;;;8.35;2.85;;;;;;;;;;5063944;28;20049;-75
2022/04/26 17:14:34;;;;;;;7.32;2.67;;;;;;;;;;5064412;28;20801;-75
2022/04/26 17:17:05;;;;;;;5.35;2.55;;;;;;;;;;5022271;28;20065;-75
2022/04/26 17:19:43;;;;;;;3.60;2.40;;;;;;;;;;5006709;28;20122;-76
2022/04/26 17:22:15;;;;;;;6.00;2.88;;;;;;;;;;5022993;28;20053;-76
2022/04/26 17:27:43;;;;;;;5.07;2.67;;;;;;;;;;5021370;28;20271;-75
2022/04/26 17:30:17;;;;;;;4.70;2.80;;;;;;;;;;5022050;28;20516;-75
2022/04/26 17:32:44;;;;;;;5.70;3.10;;;;;;;;;;5007518;28;20057;-75
2022/04/26 17:35:17;;;;;;;4.78;2.50;;;;;;;;;;5006657;28;20529;-75
2022/04/26 17:37:47;;;;;;;6.32;2.67;;;;;;;;;;5003424;28;20045;-75
2022/04/26 17:40:35;;;;;;;4.22;3.00;;;;;;;;;;5023399;28;20033;-73
2022/04/26 17:43:05;;;;;;;5.15;2.50;;;;;;;;;;5005939;28;20042;-74
2022/04/26 17:48:54;;;;;;;5.10;2.70;;;;;;;;;;5005561;28;20544;-75
2022/04/26 17:51:29;;;;;;;5.13;2.78;;;;;;;;;;5005271;28;20045;-75
2022/04/26 17:57:04;;;;;;;6.78;2.63;;;;;;;;;;5064623;28;20131;-76
2022/04/26 17:59:38;;;;;;;5.63;2.88;;;;;;;;;;5063251;28;20040;-75
2022/04/26 18:02:09;;;;;;;5.78;2.95;;;;;;;;;;5063351;28;20052;-75
2022/04/26 18:05:00;;;;;;;7.38;3.00;;;;;;;;;;5061618;28;20080;-74
2022/04/26 18:07:31;;;;;;;7.68;2.92;;;;;;;;;;5060972;28;20550;-75
2022/04/26 18:10:10;;;;;;;7.03;2.75;;;;;;;;;;5076311;28;20722;-76
2022/04/26 18:12:54;;;;;;;6.75;3.00;;;;;;;;;;5061449;28;20132;-74
2022/04/26 18:15:29;;;;;;;6.35;2.95;;;;;;;;;;5060182;28;20036;-75
2022/04/26 18:18:05;;;;;;;6.95;2.90;;;;;;;;;;5078064;28;20044;-74
2022/04/26 18:23:23;;;;;;;8.48;3.00;;;;;;;;;;5063492;28;20059;-74
2022/04/26 18:26:31;;;;;;;7.20;3.00;;;;;;;;;;5063231;28;20044;-75
2022/04/26 18:28:44;;;;;;;6.40;2.65;;;;;;;;;;5072187;28;20048;-73
2022/04/26 18:31:23;;;;;;;8.13;2.83;;;;;;;;;;5060994;28;20086;-74
2022/04/26 18:34:19;;;;;;;7.47;2.80;;;;;;;;;;5047184;28;20443;-74
2022/04/26 18:36:53;;;;;;;4.28;2.58;;;;;;;;;;5042665;28;20048;-74
2022/04/26 18:39:21;;;;;;;4.47;2.83;;;;;;;;;;5075927;28;20063;-74
2022/04/26 18:42:11;;;;;;;4.47;2.88;;;;;;;;;;5061947;28;21270;-74
2022/04/26 18:44:37;;;;;;;;;;;;;;;;;;5063039;28;20050;-74
2022/04/26 18:47:12;;;;;;;6.80;3.00;;;;;;;;;;5060954;28;20385;-74
2022/04/26 18:49:52;;;;;;;6.95;3.20;;;;;;;;;;5079229;28;20052;-74
2022/04/26 18:52:29;;;;;;;6.13;2.90;;;;;;;;;;5063073;28;20041;-74
2022/04/26 18:55:18;;;;;;;9.15;3.15;;;;;;;;;;5077521;28;20442;-73
2022/04/26 18:57:47;;;;;;;6.57;3.00;;;;;;;;;;5052604;28;20795;-74
2022/04/26 19:00:17;;;;;;;7.22;2.90;;;;;;;;;;5063967;28;20032;-74
2022/04/26 19:02:46;;;;;;;5.95;2.88;;;;;;;;;;5077644;28;20531;-74
2022/04/26 19:08:25;;;;;;;5.00;2.40;;;;;;;;;;5022656;28;20040;-74
2022/04/26 19:13:58;;;;;;;6.15;2.72;;;;;;;;;;5064103;28;20972;-74
2022/04/26 19:16:31;;;;;;;3.95;2.10;;;;;;;;;;5061828;28;20048;-74
2022/04/26 19:19:05;;;;;;;6.80;3.08;;;;;;;;;;5062490;28;20049;-74
2022/04/26 19:21:40;;;;;;;6.70;2.95;;;;;;;;;;5062939;28;20473;-74
2022/04/26 19:27:30;;;;;;;8.77;2.92;;;;;;;;;;5063742;28;20036;-74
2022/04/26 19:30:05;;;;;;;5.15;2.42;;;;;;;;;;5062796;28;20476;-74
2022/04/26 19:32:40;;;;;;;7.78;2.65;;;;;;;;;;5062848;28;20634;-74
2022/04/26 19:35:28;;;;;;;5.88;2.63;;;;;;;;;;5045822;28;20493;-73
2022/04/26 19:38:01;;;;;;;5.78;2.50;;;;;;;;;;5060574;28;20059;-73
2022/04/26 19:43:35;;;;;;;5.88;2.60;;;;;;;;;;5047757;28;21310;-73
2022/04/26 19:46:08;;;;;;;5.47;2.63;;;;;;;;;;5063670;28;20075;-74
2022/04/26 19:48:42;;;;;;;6.07;2.50;;;;;;;;;;5061473;28;20485;-75
2022/04/26 19:51:34;;;;;;;4.03;2.60;;;;;;;;;;5061546;28;20531;-73
2022/04/26 19:54:20;;;;;;;10.38;3.08;;;;;;;;;;5061796;28;20475;-74
2022/04/26 19:56:48;;;;;;;;;;;;;;;;;;5063633;28;20720;-73
2022/04/26 19:59:17;;;;;;;7.28;2.40;;;;;;;;;;5060776;28;19981;-73
2022/04/26 20:01:44;;;;;;;8.60;2.90;;;;;;;;;;5062719;28;20452;-74
2022/04/26 20:04:30;;;;;;;;;;;;;;;;;;;;;
2022/04/26 20:07:05;;;;;;;5.80;3.03;;;;;;;;;;5062303;28;20484;-74
2022/04/26 20:09:40;;;;;;;3.70;2.55;;;;;;;;;;5056350;28;20485;-73
2022/04/26 20:12:38;;;;;;;6.60;3.20;;;;;;;;;;5047515;28;20054;-74
2022/04/26 20:15:08;;;;;;;6.07;2.97;;;;;;;;;;5048756;28;20068;-73
2022/04/26 20:17:38;;;;;;;9.23;2.97;;;;;;;;;;5047593;28;20488;-74
2022/04/26 20:20:10;;;;;;;6.68;3.40;;;;;;;;;;5047045;28;20102;-73
2022/04/26 20:31:15;;;;;;;7.75;3.05;;;;;;;;;;5066256;28;20063;-67
2022/04/26 20:33:41;;;;;;;8.55;3.65;;;;;;;;;;5065678;28;20055;-67
2022/04/26 20:36:08;;;;;;;5.07;3.25;;;;;;;;;;5065796;28;20076;-67
2022/04/26 20:38:34;;;;;;;9.82;3.60;;;;;;;;;;5066244;28;20044;-67
2022/04/26 20:41:00;;;;;;;8.25;3.58;;;;;;;;;;5066262;28;20207;-67
2022/04/26 20:43:26;;;;;;;6.82;3.55;;;;;;;;;;5066385;28;20120;-67
2022/04/26 20:45:53;;;;;;;7.10;3.58;;;;;;;;;;5066011;28;20059;-67
2022/04/26 20:48:24;;;;;;;8.02;3.72;;;;;;;;;;5066426;28;20098;-67
2022/04/26 20:50:53;;;;;;;7.38;3.78;;;;;;;;;;5066320;28;20113;-67
2022/04/26 20:53:20;;;;;;;8.00;4.05;;;;;;;;;;5065436;28;20051;-67
2022/04/26 20:55:49;;;;;;;8.25;3.90;;;;;;;;;;5065699;28;20072;-67
2022/04/26 20:58:16;;;;;;;6.70;3.75;;;;;;;;;;5066638;28;20089;-67
2022/04/26 21:00:42;;;;;;;8.15;3.65;;;;;;;;;;5065491;28;20036;-67
2022/04/26 21:03:08;;;;;;;11.48;4.00;;;;;;;;;;5064220;28;20071;-67
2022/04/26 21:05:34;;;;;;;7.95;4.18;;;;;;;;;;5065183;28;20131;-67